sensor_id;sensor_type;location;lat;lon;timestamp;temperature;humidity
52615;DHT22;38508;53.158;6.614;2022-08-20T00:00:56;21.70;99.90
52615;DHT22;38508;53.158;6.614;2022-08-20T00:03:40;21.70;99.90
52615;DHT22;38508;53.158;6.614;2022-08-20T00:06:12;21.80;99.90
52615;DHT22;38508;53.158;6.614;2022-08-20T00:08:39;21.70;99.90
52615;DHT22;38508;53.158;6.614;2022-08-20T00:11:08;21.70;99.90
52615;DHT22;38508;53.158;6.614;2022-08-20T00:13:39;21.70;99.90
52615;DHT22;38508;53.158;6.614;2022-08-20T00:16:06;21.70;99.90
52615;DHT22;38508;53.158;6.614;2022-08-20T00:18:32;21.60;99.90
52615;DHT22;38508;53.158;6.614;2022-08-20T00:20:58;21.70;99.90
52615;DHT22;38508;53.158;6.614;2022-08-20T00:23:25;21.60;99.90
52615;DHT22;38508;53.158;6.614;2022-08-20T00:25:52;21.60;99.90
52615;DHT22;38508;53.158;6.614;2022-08-20T00:28:17;21.50;99.90
52615;DHT22;38508;53.158;6.614;2022-08-20T00:30:44;21.50;99.90
52615;DHT22;38508;53.158;6.614;2022-08-20T00:33:14;21.50;99.90
52615;DHT22;38508;53.158;6.614;2022-08-20T00:35:43;21.50;99.90
52615;DHT22;38508;53.158;6.614;2022-08-20T00:38:10;21.60;99.90
52615;DHT22;38508;53.158;6.614;2022-08-20T00:40:40;21.60;99.90
52615;DHT22;38508;53.158;6.614;2022-08-20T00:46:22;21.60;99.90
52615;DHT22;38508;53.158;6.614;2022-08-20T00:48:52;21.60;99.90
52615;DHT22;38508;53.158;6.614;2022-08-20T00:51:26;21.60;99.90
52615;DHT22;38508;53.158;6.614;2022-08-20T00:53:55;21.60;99.90
52615;DHT22;38508;53.158;6.614;2022-08-20T00:56:23;21.60;99.90
52615;DHT22;38508;53.158;6.614;2022-08-20T00:58:50;21.50;99.90
52615;DHT22;38508;53.158;6.614;2022-08-20T01:01:17;21.50;99.90
52615;DHT22;38508;53.158;6.614;2022-08-20T01:03:43;21.50;99.90
52615;DHT22;38508;53.158;6.614;2022-08-20T01:06:09;21.50;99.90
52615;DHT22;38508;53.158;6.614;2022-08-20T01:08:38;21.50;99.90
52615;DHT22;38508;53.158;6.614;2022-08-20T01:11:06;21.50;99.90
52615;DHT22;38508;53.158;6.614;2022-08-20T01:13:41;21.40;99.90
52615;DHT22;38508;53.158;6.614;2022-08-20T01:16:13;21.30;99.90
52615;DHT22;38508;53.158;6.614;2022-08-20T01:18:42;21.30;99.90
52615;DHT22;38508;53.158;6.614;2022-08-20T01:21:09;21.30;99.90
52615;DHT22;38508;53.158;6.614;2022-08-20T01:23:53;21.20;99.90
52615;DHT22;38508;53.158;6.614;2022-08-20T01:28:51;21.20;99.90
52615;DHT22;38508;53.158;6.614;2022-08-20T01:31:20;21.20;99.90
52615;DHT22;38508;53.158;6.614;2022-08-20T01:33:47;21.20;99.90
52615;DHT22;38508;53.158;6.614;2022-08-20T01:36:15;21.20;99.90
52615;DHT22;38508;53.158;6.614;2022-08-20T01:38:42;21.20;99.90
52615;DHT22;38508;53.158;6.614;2022-08-20T01:43:49;21.20;99.90
52615;DHT22;38508;53.158;6.614;2022-08-20T01:46:16;21.10;99.90
52615;DHT22;38508;53.158;6.614;2022-08-20T01:48:43;21.10;99.90
52615;DHT22;38508;53.158;6.614;2022-08-20T01:51:22;21.10;99.90
52615;DHT22;38508;53.158;6.614;2022-08-20T01:53:51;21.10;99.90
52615;DHT22;38508;53.158;6.614;2022-08-20T01:56:21;21.00;99.90
52615;DHT22;38508;53.158;6.614;2022-08-20T01:58:49;21.00;99.90
52615;DHT22;38508;53.158;6.614;2022-08-20T02:01:24;20.90;99.90
52615;DHT22;38508;53.158;6.614;2022-08-20T02:03:51;20.90;99.90
52615;DHT22;38508;53.158;6.614;2022-08-20T02:06:18;20.80;99.90
52615;DHT22;38508;53.158;6.614;2022-08-20T02:08:44;20.80;99.90
52615;DHT22;38508;53.158;6.614;2022-08-20T02:11:11;20.80;99.90
52615;DHT22;38508;53.158;6.614;2022-08-20T02:13:37;20.80;99.90
52615;DHT22;38508;53.158;6.614;2022-08-20T02:16:05;20.70;99.90
52615;DHT22;38508;53.158;6.614;2022-08-20T02:18:31;20.70;99.90
52615;DHT22;38508;53.158;6.614;2022-08-20T02:20:57;20.70;99.90
52615;DHT22;38508;53.158;6.614;2022-08-20T02:23:23;20.60;99.90
52615;DHT22;38508;53.158;6.614;2022-08-20T02:25:48;20.60;99.90
52615;DHT22;38508;53.158;6.614;2022-08-20T02:28:17;20.60;99.90
52615;DHT22;38508;53.158;6.614;2022-08-20T02:30:48;20.60;99.90
52615;DHT22;38508;53.158;6.614;2022-08-20T02:33:17;20.60;99.90
52615;DHT22;38508;53.158;6.614;2022-08-20T02:35:46;20.50;99.90
52615;DHT22;38508;53.158;6.614;2022-08-20T02:38:12;20.40;99.90
52615;DHT22;38508;53.158;6.614;2022-08-20T02:40:40;20.40;99.90
52615;DHT22;38508;53.158;6.614;2022-08-20T02:43:06;20.40;99.90
52615;DHT22;38508;53.158;6.614;2022-08-20T02:45:33;20.40;99.90
52615;DHT22;38508;53.158;6.614;2022-08-20T02:48:10;20.30;99.90
52615;DHT22;38508;53.158;6.614;2022-08-20T02:50:36;20.20;99.90
52615;DHT22;38508;53.158;6.614;2022-08-20T02:53:02;20.30;99.90
52615;DHT22;38508;53.158;6.614;2022-08-20T02:55:28;20.30;99.90
52615;DHT22;38508;53.158;6.614;2022-08-20T02:57:55;20.30;99.90
52615;DHT22;38508;53.158;6.614;2022-08-20T03:00:21;20.20;99.90
52615;DHT22;38508;53.158;6.614;2022-08-20T03:02:47;20.20;99.90
52615;DHT22;38508;53.158;6.614;2022-08-20T03:05:13;20.20;99.90
52615;DHT22;38508;53.158;6.614;2022-08-20T03:07:49;20.20;99.90
52615;DHT22;38508;53.158;6.614;2022-08-20T03:10:28;20.10;99.90
52615;DHT22;38508;53.158;6.614;2022-08-20T03:12:54;20.10;99.90
52615;DHT22;38508;53.158;6.614;2022-08-20T03:15:20;20.00;99.90
52615;DHT22;38508;53.158;6.614;2022-08-20T03:17:46;20.00;99.90
52615;DHT22;38508;53.158;6.614;2022-08-20T03:20:12;20.00;99.90
52615;DHT22;38508;53.158;6.614;2022-08-20T03:22:39;20.00;99.90
52615;DHT22;38508;53.158;6.614;2022-08-20T03:25:05;19.90;99.90
52615;DHT22;38508;53.158;6.614;2022-08-20T03:27:31;19.90;99.90
52615;DHT22;38508;53.158;6.614;2022-08-20T03:29:57;19.80;99.90
52615;DHT22;38508;53.158;6.614;2022-08-20T03:32:23;19.80;99.90
52615;DHT22;38508;53.158;6.614;2022-08-20T03:34:48;19.80;99.90
52615;DHT22;38508;53.158;6.614;2022-08-20T03:37:14;19.80;99.90
52615;DHT22;38508;53.158;6.614;2022-08-20T03:39:40;19.80;99.90
52615;DHT22;38508;53.158;6.614;2022-08-20T03:42:06;19.80;99.90
52615;DHT22;38508;53.158;6.614;2022-08-20T03:44:32;19.80;99.90
52615;DHT22;38508;53.158;6.614;2022-08-20T03:46:58;19.80;99.90
52615;DHT22;38508;53.158;6.614;2022-08-20T03:49:23;19.90;99.90
52615;DHT22;38508;53.158;6.614;2022-08-20T03:51:50;19.80;99.90
52615;DHT22;38508;53.158;6.614;2022-08-20T03:54:16;19.90;99.90
52615;DHT22;38508;53.158;6.614;2022-08-20T03:56:42;19.90;99.90
52615;DHT22;38508;53.158;6.614;2022-08-20T03:59:07;19.80;99.90
52615;DHT22;38508;53.158;6.614;2022-08-20T04:01:34;19.80;99.90
52615;DHT22;38508;53.158;6.614;2022-08-20T04:04:00;19.80;99.90
52615;DHT22;38508;53.158;6.614;2022-08-20T04:06:26;19.80;99.90
52615;DHT22;38508;53.158;6.614;2022-08-20T04:08:54;19.80;99.90
52615;DHT22;38508;53.158;6.614;2022-08-20T04:11:20;19.80;99.90
52615;DHT22;38508;53.158;6.614;2022-08-20T04:13:46;19.70;99.90
52615;DHT22;38508;53.158;6.614;2022-08-20T04:16:11;19.60;99.90
52615;DHT22;38508;53.158;6.614;2022-08-20T04:18:37;19.60;99.90
52615;DHT22;38508;53.158;6.614;2022-08-20T04:21:03;19.60;99.90
52615;DHT22;38508;53.158;6.614;2022-08-20T04:23:32;19.50;99.90
52615;DHT22;38508;53.158;6.614;2022-08-20T04:25:58;19.50;99.90
52615;DHT22;38508;53.158;6.614;2022-08-20T04:28:25;19.50;99.90
52615;DHT22;38508;53.158;6.614;2022-08-20T04:30:58;19.40;99.90
52615;DHT22;38508;53.158;6.614;2022-08-20T04:33:25;19.40;99.90
52615;DHT22;38508;53.158;6.614;2022-08-20T04:35:53;19.40;99.90
52615;DHT22;38508;53.158;6.614;2022-08-20T04:38:21;19.40;99.90
52615;DHT22;38508;53.158;6.614;2022-08-20T04:40:47;19.40;99.90
52615;DHT22;38508;53.158;6.614;2022-08-20T04:43:35;19.30;99.90
52615;DHT22;38508;53.158;6.614;2022-08-20T04:46:05;19.40;99.90
52615;DHT22;38508;53.158;6.614;2022-08-20T04:48:31;19.30;99.90
52615;DHT22;38508;53.158;6.614;2022-08-20T04:50:58;19.30;99.90
52615;DHT22;38508;53.158;6.614;2022-08-20T04:53:25;19.30;99.90
52615;DHT22;38508;53.158;6.614;2022-08-20T04:55:54;19.30;99.90
52615;DHT22;38508;53.158;6.614;2022-08-20T04:58:27;19.30;99.90
52615;DHT22;38508;53.158;6.614;2022-08-20T05:00:57;19.30;99.90
52615;DHT22;38508;53.158;6.614;2022-08-20T05:03:23;19.30;99.90
52615;DHT22;38508;53.158;6.614;2022-08-20T05:05:50;19.30;99.90
52615;DHT22;38508;53.158;6.614;2022-08-20T05:08:18;19.30;99.90
52615;DHT22;38508;53.158;6.614;2022-08-20T05:10:45;19.30;99.90
52615;DHT22;38508;53.158;6.614;2022-08-20T05:13:11;19.20;99.90
52615;DHT22;38508;53.158;6.614;2022-08-20T05:15:37;19.10;99.90
52615;DHT22;38508;53.158;6.614;2022-08-20T05:18:05;19.10;99.90
52615;DHT22;38508;53.158;6.614;2022-08-20T05:20:35;19.10;99.90
52615;DHT22;38508;53.158;6.614;2022-08-20T05:23:05;19.10;99.90
52615;DHT22;38508;53.158;6.614;2022-08-20T05:25:32;19.20;99.90
52615;DHT22;38508;53.158;6.614;2022-08-20T05:28:00;19.10;99.90
52615;DHT22;38508;53.158;6.614;2022-08-20T05:30:29;19.10;99.90
52615;DHT22;38508;53.158;6.614;2022-08-20T05:33:01;19.00;99.90
52615;DHT22;38508;53.158;6.614;2022-08-20T05:35:28;18.90;99.90
52615;DHT22;38508;53.158;6.614;2022-08-20T05:37:54;19.00;99.90
52615;DHT22;38508;53.158;6.614;2022-08-20T05:40:20;19.00;99.90
52615;DHT22;38508;53.158;6.614;2022-08-20T05:42:47;19.00;99.90
52615;DHT22;38508;53.158;6.614;2022-08-20T05:45:13;19.00;99.90
52615;DHT22;38508;53.158;6.614;2022-08-20T05:47:41;19.00;99.90
52615;DHT22;38508;53.158;6.614;2022-08-20T05:50:08;19.00;99.90
52615;DHT22;38508;53.158;6.614;2022-08-20T05:52:34;19.00;99.90
52615;DHT22;38508;53.158;6.614;2022-08-20T05:55:00;19.10;99.90
52615;DHT22;38508;53.158;6.614;2022-08-20T05:57:25;19.10;99.90
52615;DHT22;38508;53.158;6.614;2022-08-20T05:59:51;19.20;99.90
52615;DHT22;38508;53.158;6.614;2022-08-20T06:02:18;19.30;99.90
52615;DHT22;38508;53.158;6.614;2022-08-20T06:05:02;19.40;99.90
52615;DHT22;38508;53.158;6.614;2022-08-20T06:07:28;19.60;99.90
52615;DHT22;38508;53.158;6.614;2022-08-20T06:09:54;19.70;99.90
52615;DHT22;38508;53.158;6.614;2022-08-20T06:12:19;19.80;99.90
52615;DHT22;38508;53.158;6.614;2022-08-20T06:14:45;19.90;99.90
52615;DHT22;38508;53.158;6.614;2022-08-20T06:17:16;19.90;99.90
52615;DHT22;38508;53.158;6.614;2022-08-20T06:19:44;20.10;99.90
52615;DHT22;38508;53.158;6.614;2022-08-20T06:22:09;20.20;99.90
52615;DHT22;38508;53.158;6.614;2022-08-20T06:24:35;20.30;99.90
52615;DHT22;38508;53.158;6.614;2022-08-20T06:27:03;20.30;99.90
52615;DHT22;38508;53.158;6.614;2022-08-20T06:29:29;20.30;99.90
52615;DHT22;38508;53.158;6.614;2022-08-20T06:31:58;20.40;99.90
52615;DHT22;38508;53.158;6.614;2022-08-20T06:34:24;20.50;99.90
52615;DHT22;38508;53.158;6.614;2022-08-20T06:36:53;20.50;99.90
52615;DHT22;38508;53.158;6.614;2022-08-20T06:39:19;20.40;99.90
52615;DHT22;38508;53.158;6.614;2022-08-20T06:41:44;20.30;99.90
52615;DHT22;38508;53.158;6.614;2022-08-20T06:44:10;20.50;99.90
52615;DHT22;38508;53.158;6.614;2022-08-20T06:46:37;20.60;99.90
52615;DHT22;38508;53.158;6.614;2022-08-20T06:49:06;20.70;99.90
52615;DHT22;38508;53.158;6.614;2022-08-20T06:51:33;20.90;99.90
52615;DHT22;38508;53.158;6.614;2022-08-20T06:53:59;20.80;99.90
52615;DHT22;38508;53.158;6.614;2022-08-20T06:56:25;20.90;99.90
52615;DHT22;38508;53.158;6.614;2022-08-20T06:58:50;21.10;99.90
52615;DHT22;38508;53.158;6.614;2022-08-20T07:01:16;21.20;99.90
52615;DHT22;38508;53.158;6.614;2022-08-20T07:03:47;21.20;99.90
52615;DHT22;38508;53.158;6.614;2022-08-20T07:06:15;21.20;99.90
52615;DHT22;38508;53.158;6.614;2022-08-20T07:08:42;21.30;99.90
52615;DHT22;38508;53.158;6.614;2022-08-20T07:11:08;21.30;99.90
52615;DHT22;38508;53.158;6.614;2022-08-20T07:13:34;21.30;99.90
52615;DHT22;38508;53.158;6.614;2022-08-20T07:16:04;21.40;99.90
52615;DHT22;38508;53.158;6.614;2022-08-20T07:18:30;21.50;99.90
52615;DHT22;38508;53.158;6.614;2022-08-20T07:20:56;21.50;99.90
52615;DHT22;38508;53.158;6.614;2022-08-20T07:23:23;21.40;99.90
52615;DHT22;38508;53.158;6.614;2022-08-20T07:25:49;21.50;99.90
52615;DHT22;38508;53.158;6.614;2022-08-20T07:28:19;21.70;99.90
52615;DHT22;38508;53.158;6.614;2022-08-20T07:30:47;21.50;99.90
52615;DHT22;38508;53.158;6.614;2022-08-20T07:33:32;21.60;99.90
52615;DHT22;38508;53.158;6.614;2022-08-20T07:35:59;21.70;99.90
52615;DHT22;38508;53.158;6.614;2022-08-20T07:38:27;21.80;99.90
52615;DHT22;38508;53.158;6.614;2022-08-20T07:40:57;21.60;99.90
52615;DHT22;38508;53.158;6.614;2022-08-20T07:43:24;21.50;99.90
52615;DHT22;38508;53.158;6.614;2022-08-20T07:45:50;21.50;99.90
52615;DHT22;38508;53.158;6.614;2022-08-20T07:48:16;21.30;99.90
52615;DHT22;38508;53.158;6.614;2022-08-20T07:50:42;21.20;99.90
52615;DHT22;38508;53.158;6.614;2022-08-20T07:53:08;21.20;99.90
52615;DHT22;38508;53.158;6.614;2022-08-20T07:55:36;21.20;99.90
52615;DHT22;38508;53.158;6.614;2022-08-20T07:58:10;21.30;99.90
52615;DHT22;38508;53.158;6.614;2022-08-20T08:00:36;21.40;99.90
52615;DHT22;38508;53.158;6.614;2022-08-20T08:03:02;21.10;99.90
52615;DHT22;38508;53.158;6.614;2022-08-20T08:05:29;21.30;99.90
52615;DHT22;38508;53.158;6.614;2022-08-20T08:07:56;21.40;99.90
52615;DHT22;38508;53.158;6.614;2022-08-20T08:10:23;21.50;99.90
52615;DHT22;38508;53.158;6.614;2022-08-20T08:12:52;21.80;99.90
52615;DHT22;38508;53.158;6.614;2022-08-20T08:15:23;21.90;99.90
52615;DHT22;38508;53.158;6.614;2022-08-20T08:17:53;21.80;99.90
52615;DHT22;38508;53.158;6.614;2022-08-20T08:20:21;21.90;99.90
52615;DHT22;38508;53.158;6.614;2022-08-20T08:22:48;21.90;99.90
52615;DHT22;38508;53.158;6.614;2022-08-20T08:25:14;21.90;99.90
52615;DHT22;38508;53.158;6.614;2022-08-20T08:27:42;22.10;99.90
52615;DHT22;38508;53.158;6.614;2022-08-20T08:30:08;22.30;99.90
52615;DHT22;38508;53.158;6.614;2022-08-20T08:32:35;22.10;99.90
52615;DHT22;38508;53.158;6.614;2022-08-20T08:35:05;22.10;99.90
52615;DHT22;38508;53.158;6.614;2022-08-20T08:37:33;22.20;99.90
52615;DHT22;38508;53.158;6.614;2022-08-20T08:39:59;22.30;99.90
52615;DHT22;38508;53.158;6.614;2022-08-20T08:42:28;22.30;99.90
52615;DHT22;38508;53.158;6.614;2022-08-20T08:44:58;22.50;99.90
52615;DHT22;38508;53.158;6.614;2022-08-20T08:47:30;22.50;99.90
52615;DHT22;38508;53.158;6.614;2022-08-20T08:50:00;22.70;99.90
52615;DHT22;38508;53.158;6.614;2022-08-20T08:52:32;22.60;99.90
52615;DHT22;38508;53.158;6.614;2022-08-20T08:55:03;22.60;99.90
52615;DHT22;38508;53.158;6.614;2022-08-20T08:57:29;22.70;99.90
52615;DHT22;38508;53.158;6.614;2022-08-20T08:59:59;22.60;99.90
52615;DHT22;38508;53.158;6.614;2022-08-20T09:02:26;22.70;99.90
52615;DHT22;38508;53.158;6.614;2022-08-20T09:04:57;22.80;99.50
52615;DHT22;38508;53.158;6.614;2022-08-20T09:07:33;22.60;99.80
52615;DHT22;38508;53.158;6.614;2022-08-20T09:10:00;22.60;99.30
52615;DHT22;38508;53.158;6.614;2022-08-20T09:12:26;22.70;99.30
52615;DHT22;38508;53.158;6.614;2022-08-20T09:14:52;22.70;99.00
52615;DHT22;38508;53.158;6.614;2022-08-20T09:17:20;22.70;99.10
52615;DHT22;38508;53.158;6.614;2022-08-20T09:19:46;22.70;99.70
52615;DHT22;38508;53.158;6.614;2022-08-20T09:22:16;22.90;99.60
52615;DHT22;38508;53.158;6.614;2022-08-20T09:24:42;23.10;99.40
52615;DHT22;38508;53.158;6.614;2022-08-20T09:27:08;23.00;99.70
52615;DHT22;38508;53.158;6.614;2022-08-20T09:29:34;23.30;99.40
52615;DHT22;38508;53.158;6.614;2022-08-20T09:34:38;23.00;98.20
52615;DHT22;38508;53.158;6.614;2022-08-20T09:37:04;23.00;99.00
52615;DHT22;38508;53.158;6.614;2022-08-20T09:39:30;23.00;98.30
52615;DHT22;38508;53.158;6.614;2022-08-20T09:42:16;23.10;99.40
52615;DHT22;38508;53.158;6.614;2022-08-20T09:44:44;23.00;98.20
52615;DHT22;38508;53.158;6.614;2022-08-20T09:47:10;23.00;98.20
52615;DHT22;38508;53.158;6.614;2022-08-20T09:49:36;23.00;98.40
52615;DHT22;38508;53.158;6.614;2022-08-20T09:52:04;23.10;98.90
52615;DHT22;38508;53.158;6.614;2022-08-20T09:54:31;22.90;98.20
52615;DHT22;38508;53.158;6.614;2022-08-20T09:57:01;22.70;98.20
52615;DHT22;38508;53.158;6.614;2022-08-20T09:59:28;22.90;97.90
52615;DHT22;38508;53.158;6.614;2022-08-20T10:01:55;23.00;97.90
52615;DHT22;38508;53.158;6.614;2022-08-20T10:04:20;23.40;98.20
52615;DHT22;38508;53.158;6.614;2022-08-20T10:06:46;23.60;98.30
52615;DHT22;38508;53.158;6.614;2022-08-20T10:09:12;23.70;98.60
52615;DHT22;38508;53.158;6.614;2022-08-20T10:11:38;24.10;98.30
52615;DHT22;38508;53.158;6.614;2022-08-20T10:14:03;24.30;98.40
52615;DHT22;38508;53.158;6.614;2022-08-20T10:16:30;24.20;98.40
52615;DHT22;38508;53.158;6.614;2022-08-20T10:18:56;24.10;97.50
52615;DHT22;38508;53.158;6.614;2022-08-20T10:21:22;24.40;97.50
52615;DHT22;38508;53.158;6.614;2022-08-20T10:23:48;24.50;96.80
52615;DHT22;38508;53.158;6.614;2022-08-20T10:26:14;24.40;97.70
52615;DHT22;38508;53.158;6.614;2022-08-20T10:28:42;24.80;97.60
52615;DHT22;38508;53.158;6.614;2022-08-20T10:31:10;24.90;97.20
52615;DHT22;38508;53.158;6.614;2022-08-20T10:33:36;25.00;97.60
52615;DHT22;38508;53.158;6.614;2022-08-20T10:36:15;25.20;97.70
52615;DHT22;38508;53.158;6.614;2022-08-20T10:38:42;24.80;97.90
52615;DHT22;38508;53.158;6.614;2022-08-20T10:41:08;24.70;98.10
52615;DHT22;38508;53.158;6.614;2022-08-20T10:43:34;24.60;97.80
52615;DHT22;38508;53.158;6.614;2022-08-20T10:46:00;24.70;97.20
52615;DHT22;38508;53.158;6.614;2022-08-20T10:48:26;24.60;96.90
52615;DHT22;38508;53.158;6.614;2022-08-20T10:50:52;24.80;97.00
52615;DHT22;38508;53.158;6.614;2022-08-20T10:53:18;25.10;96.70
52615;DHT22;38508;53.158;6.614;2022-08-20T10:55:44;25.40;96.50
52615;DHT22;38508;53.158;6.614;2022-08-20T10:58:09;25.60;97.10
52615;DHT22;38508;53.158;6.614;2022-08-20T11:00:38;26.00;97.00
52615;DHT22;38508;53.158;6.614;2022-08-20T11:03:03;25.60;96.10
52615;DHT22;38508;53.158;6.614;2022-08-20T11:05:29;24.90;97.00
52615;DHT22;38508;53.158;6.614;2022-08-20T11:07:55;25.00;96.70
52615;DHT22;38508;53.158;6.614;2022-08-20T11:10:21;24.90;96.70
52615;DHT22;38508;53.158;6.614;2022-08-20T11:12:47;25.10;96.70
52615;DHT22;38508;53.158;6.614;2022-08-20T11:15:14;25.10;96.90
52615;DHT22;38508;53.158;6.614;2022-08-20T11:17:41;24.90;96.50
52615;DHT22;38508;53.158;6.614;2022-08-20T11:20:08;24.70;96.70
52615;DHT22;38508;53.158;6.614;2022-08-20T11:22:35;24.90;96.40
52615;DHT22;38508;53.158;6.614;2022-08-20T11:25:02;25.00;96.40
52615;DHT22;38508;53.158;6.614;2022-08-20T11:27:38;25.20;96.30
52615;DHT22;38508;53.158;6.614;2022-08-20T11:30:07;25.30;96.20
52615;DHT22;38508;53.158;6.614;2022-08-20T11:32:33;25.30;96.50
52615;DHT22;38508;53.158;6.614;2022-08-20T11:34:59;25.70;96.90
52615;DHT22;38508;53.158;6.614;2022-08-20T11:37:24;25.90;96.70
52615;DHT22;38508;53.158;6.614;2022-08-20T11:39:51;25.80;97.40
52615;DHT22;38508;53.158;6.614;2022-08-20T11:42:17;25.70;96.70
52615;DHT22;38508;53.158;6.614;2022-08-20T11:44:42;25.20;97.00
52615;DHT22;38508;53.158;6.614;2022-08-20T11:47:18;24.90;96.60
52615;DHT22;38508;53.158;6.614;2022-08-20T11:49:45;24.90;96.80
52615;DHT22;38508;53.158;6.614;2022-08-20T11:52:10;25.40;97.10
52615;DHT22;38508;53.158;6.614;2022-08-20T11:54:36;25.70;97.60
52615;DHT22;38508;53.158;6.614;2022-08-20T11:57:05;25.80;96.70
52615;DHT22;38508;53.158;6.614;2022-08-20T11:59:31;26.40;96.90
52615;DHT22;38508;53.158;6.614;2022-08-20T12:01:56;26.70;96.50
52615;DHT22;38508;53.158;6.614;2022-08-20T12:04:23;26.40;96.50
52615;DHT22;38508;53.158;6.614;2022-08-20T12:06:49;26.40;96.60
52615;DHT22;38508;53.158;6.614;2022-08-20T12:09:14;26.30;96.40
52615;DHT22;38508;53.158;6.614;2022-08-20T12:11:41;26.10;96.50
52615;DHT22;38508;53.158;6.614;2022-08-20T12:14:07;26.10;95.90
52615;DHT22;38508;53.158;6.614;2022-08-20T12:16:33;25.90;96.50
52615;DHT22;38508;53.158;6.614;2022-08-20T12:18:59;26.00;96.10
52615;DHT22;38508;53.158;6.614;2022-08-20T12:21:24;25.70;96.40
52615;DHT22;38508;53.158;6.614;2022-08-20T12:23:50;25.50;96.20
52615;DHT22;38508;53.158;6.614;2022-08-20T12:26:15;25.50;96.30
52615;DHT22;38508;53.158;6.614;2022-08-20T12:28:41;25.60;96.30
52615;DHT22;38508;53.158;6.614;2022-08-20T12:31:07;25.50;96.30
52615;DHT22;38508;53.158;6.614;2022-08-20T12:33:33;25.20;96.30
52615;DHT22;38508;53.158;6.614;2022-08-20T12:35:59;24.90;96.40
52615;DHT22;38508;53.158;6.614;2022-08-20T12:38:25;24.80;96.20
52615;DHT22;38508;53.158;6.614;2022-08-20T12:40:50;25.00;96.60
52615;DHT22;38508;53.158;6.614;2022-08-20T12:43:16;25.10;96.70
52615;DHT22;38508;53.158;6.614;2022-08-20T12:45:42;25.10;96.50
52615;DHT22;38508;53.158;6.614;2022-08-20T12:48:10;25.20;96.80
52615;DHT22;38508;53.158;6.614;2022-08-20T12:50:39;25.50;96.50
52615;DHT22;38508;53.158;6.614;2022-08-20T12:53:05;25.90;96.80
52615;DHT22;38508;53.158;6.614;2022-08-20T12:55:31;26.00;96.50
52615;DHT22;38508;53.158;6.614;2022-08-20T12:58:00;26.00;96.30
52615;DHT22;38508;53.158;6.614;2022-08-20T13:00:39;26.00;95.90
52615;DHT22;38508;53.158;6.614;2022-08-20T13:03:06;26.00;96.00
52615;DHT22;38508;53.158;6.614;2022-08-20T13:05:33;26.10;96.50
52615;DHT22;38508;53.158;6.614;2022-08-20T13:08:00;26.40;95.70
52615;DHT22;38508;53.158;6.614;2022-08-20T13:10:31;26.40;95.80
52615;DHT22;38508;53.158;6.614;2022-08-20T13:12:57;26.10;95.70
52615;DHT22;38508;53.158;6.614;2022-08-20T13:15:24;26.30;96.00
52615;DHT22;38508;53.158;6.614;2022-08-20T13:18:01;26.60;96.00
52615;DHT22;38508;53.158;6.614;2022-08-20T13:20:27;26.60;95.40
52615;DHT22;38508;53.158;6.614;2022-08-20T13:22:53;26.40;95.90
52615;DHT22;38508;53.158;6.614;2022-08-20T13:25:20;26.10;95.80
52615;DHT22;38508;53.158;6.614;2022-08-20T13:27:46;25.80;96.20
52615;DHT22;38508;53.158;6.614;2022-08-20T13:30:15;26.20;95.90
52615;DHT22;38508;53.158;6.614;2022-08-20T13:32:41;26.60;96.20
52615;DHT22;38508;53.158;6.614;2022-08-20T13:35:08;26.90;95.60
52615;DHT22;38508;53.158;6.614;2022-08-20T13:37:35;26.70;95.60
52615;DHT22;38508;53.158;6.614;2022-08-20T13:40:02;26.50;95.50
52615;DHT22;38508;53.158;6.614;2022-08-20T13:42:28;26.00;95.60
52615;DHT22;38508;53.158;6.614;2022-08-20T13:44:54;25.50;95.90
52615;DHT22;38508;53.158;6.614;2022-08-20T13:47:29;25.30;95.70
52615;DHT22;38508;53.158;6.614;2022-08-20T13:50:17;25.40;95.60
52615;DHT22;38508;53.158;6.614;2022-08-20T13:52:43;25.30;95.80
52615;DHT22;38508;53.158;6.614;2022-08-20T13:55:11;25.40;95.70
52615;DHT22;38508;53.158;6.614;2022-08-20T13:57:38;25.60;95.90
52615;DHT22;38508;53.158;6.614;2022-08-20T14:00:07;25.70;95.70
52615;DHT22;38508;53.158;6.614;2022-08-20T14:02:35;25.60;95.60
52615;DHT22;38508;53.158;6.614;2022-08-20T14:05:01;25.50;95.30
52615;DHT22;38508;53.158;6.614;2022-08-20T14:07:28;25.30;95.30
52615;DHT22;38508;53.158;6.614;2022-08-20T14:09:57;25.60;95.40
52615;DHT22;38508;53.158;6.614;2022-08-20T14:12:23;25.80;95.50
52615;DHT22;38508;53.158;6.614;2022-08-20T14:14:50;25.90;95.60
52615;DHT22;38508;53.158;6.614;2022-08-20T14:17:23;26.20;96.20
52615;DHT22;38508;53.158;6.614;2022-08-20T14:19:51;26.30;96.30
52615;DHT22;38508;53.158;6.614;2022-08-20T14:22:17;26.40;96.20
52615;DHT22;38508;53.158;6.614;2022-08-20T14:24:44;26.60;96.30
52615;DHT22;38508;53.158;6.614;2022-08-20T14:27:10;26.70;95.80
52615;DHT22;38508;53.158;6.614;2022-08-20T14:29:38;26.40;95.60
52615;DHT22;38508;53.158;6.614;2022-08-20T14:32:05;26.20;95.30
52615;DHT22;38508;53.158;6.614;2022-08-20T14:34:31;26.30;95.40
52615;DHT22;38508;53.158;6.614;2022-08-20T14:39:34;26.00;95.30
52615;DHT22;38508;53.158;6.614;2022-08-20T14:42:00;25.70;95.40
52615;DHT22;38508;53.158;6.614;2022-08-20T14:44:25;25.80;95.70
52615;DHT22;38508;53.158;6.614;2022-08-20T14:46:54;25.90;95.60
52615;DHT22;38508;53.158;6.614;2022-08-20T14:49:19;25.90;95.80
52615;DHT22;38508;53.158;6.614;2022-08-20T14:51:45;26.00;95.70
52615;DHT22;38508;53.158;6.614;2022-08-20T14:54:11;26.20;95.90
52615;DHT22;38508;53.158;6.614;2022-08-20T14:56:36;26.60;95.50
52615;DHT22;38508;53.158;6.614;2022-08-20T14:59:02;26.80;95.50
52615;DHT22;38508;53.158;6.614;2022-08-20T15:01:28;26.80;96.00
52615;DHT22;38508;53.158;6.614;2022-08-20T15:03:54;26.80;95.80
52615;DHT22;38508;53.158;6.614;2022-08-20T15:06:19;26.60;95.40
52615;DHT22;38508;53.158;6.614;2022-08-20T15:08:45;26.70;95.50
52615;DHT22;38508;53.158;6.614;2022-08-20T15:11:14;26.90;95.30
52615;DHT22;38508;53.158;6.614;2022-08-20T15:13:40;26.90;95.80
52615;DHT22;38508;53.158;6.614;2022-08-20T15:16:05;26.90;95.40
52615;DHT22;38508;53.158;6.614;2022-08-20T15:18:31;26.60;95.40
52615;DHT22;38508;53.158;6.614;2022-08-20T15:20:57;26.60;95.50
52615;DHT22;38508;53.158;6.614;2022-08-20T15:23:22;26.50;95.70
52615;DHT22;38508;53.158;6.614;2022-08-20T15:25:48;26.30;95.70
52615;DHT22;38508;53.158;6.614;2022-08-20T15:28:14;26.20;95.40
52615;DHT22;38508;53.158;6.614;2022-08-20T15:30:40;26.10;95.60
52615;DHT22;38508;53.158;6.614;2022-08-20T15:33:08;25.90;95.40
52615;DHT22;38508;53.158;6.614;2022-08-20T15:35:33;25.60;95.40
52615;DHT22;38508;53.158;6.614;2022-08-20T15:37:59;25.50;95.30
52615;DHT22;38508;53.158;6.614;2022-08-20T15:40:27;25.40;95.30
52615;DHT22;38508;53.158;6.614;2022-08-20T15:42:54;25.80;95.50
52615;DHT22;38508;53.158;6.614;2022-08-20T15:45:20;25.70;95.30